메인 페이지
METAR-TAF:

METAR-TAF

공항 :

다르에스살람, 탄자니아

위도: 06-52S, 경도: 039-12E, 고도: 55m

현재 날씨관측

예보는 1 시간 1분 전, 08:00시(UTC)에 발표되었습니다.
남남동11kt
온도 28°C
습도 62%
기압 1020 hPa
시정 10km 이상
고도 2500ft 상공 구름 조금
고도 2700ft 상공 구름 많음

METAR: HTDA 130800Z 16011KT 9999 FEW025 BKN027 28/20 Q1020 NOSIG

시각: 12:01 (09:01 UTC)

예보

예보는 4 시간 1분 전, 05:00시(UTC)에 발표되었습니다.
예보 대상 시간: 13일 06시부터 14일 12시까지 (UTC)
10kt
시정 10km 이상
고도 2700ft 상공 구름 많음
전환 중
13일 15시부터 13일 17시까지 (UTC)
고도 1500ft 상공 구름 보통

TAF: HTDA 130500Z 1306/1412 18010KT 9999 BKN027 BECMG 1315/1317 SCT015

4,000개 이상의 공항 관측 자료 및 예보 (METAR 및 TAF 보고).

지도상에서 검색 가능한 기상관측소가 노란 점과 빨간 점으로 표시되어 있습니다.

기상관측소 명을 보려면 표시 위로 마우스를 이동하세요.

날씨 관측과 예보를 보려면 클릭하세요.

지도 변경 : 확대하려면 엑스 표시가 있는 녹색 버튼, 축소하려면 빼기 표시가 있는 녹색 버튼, 다음 페이지의 지도를 보려면 녹색 화살표를 클릭하세요.


METAR-TAF: